Beaver Bay, Minnesota
Current Conditions -  °F | °C
As of 10:34 AM on Thursday 29 Jan 2015 (Local Time) from KBFW Reporting Station
Overcast Overcast  
Wind Chill: 17°   Ceiling: 1900
Heat Index: 27°   Visibility: 10mi
Dew Point: 18°   Wind: 10mph
Humidity: 69%   Direction: 310°NW
Pressure: 30.07"   Gusts: 18mph
Location:  47.26°N, 91.3°W
Report Text: KBFW 291634Z AUTO 31009G16KT 10SM OVC019 M03/M08 A3007 RMK AO2
Loading
Personal Weather Stations






























Interactive Weather Map New forecast layout! Learn more

10-Day Weather Forecast

Advertisements
Track Severe Weather on mobile